Aérodrome :
LOGIN :

S'inscrire | Disclaimer

   EN    FR    IT 

 










Légende :    VFR   VFR Marginal   IFR   IFR Intensif   IFR Très Intensif
Visi : 
Plafond : 
>= 8 km
>= 3000ft
5 à 8 km
1000 à 3000 ft
1500m à 5 km
500 à 1000 ft
800 à 1500m
200 à 500 ft
< 800m
< 200 ft
Symboles :   Orages  Brouillard  Fortes neiges  Fortes précipitations  Vent > 20 kt
SIGMETs :   Divers  Orages  Givrage  Turbulence  Onde Orograph.  Cendres Volcan.







- Altitude de l'aérodrome : 13 ft
- Code IATA : GOA


LIMJ - Genoa Cristoforo Colombo

DERNIER METAR :
  • 221520Z VRB06G16KT 9999 SCT050 BKN080 20/08 Q1007

METARs EXPIRÉS :
  • 221450Z 32009KT 9999 SCT065 BKN080 20/08 Q1007
  • 221420Z 31009KT 280V360 9999 FEW065 BKN080 20/09 Q1007
  • 221350Z 33014KT 300V010 9999 SCT080 21/09 Q1006
  • 221320Z VRB08G27KT 9999 SCT080 21/09 Q1007
  • 221250Z 11006KT 020V170 9999 SCT080 19/11 Q1008

TAF COR TAF LIMJ
Valide du 22 à 14h jusqu'au 23 à 12h UTC


221406Z 2214/2312 01015KT 9999 SCT030
TEMPO 2212/2218 01020G30KT
BECMG 2216/2218 RA BKN012 BKN040
Pas de NOTAMs connus pour ce terrain.



MET'MAP, la Météo Aéronautique d'un coup d'oeil ! - Copyright ORBIFLY Décembre 2007 - Disclaimer

ORBIFLY MET'MAP TEAM :

Programmation & Développement : Alexandra Zaïnal
Conception & Développement : Baudouin d'Aumeries
Co-Programmation & Développement : Marc-Olivier Méhu
Soutien technique & logistique : Manuel Goepfert

Contact : metmap@orbifly.com




SOURCES & CREDITS :

   NOAA